PST,Max TemperatureF,Mean TemperatureF,Min TemperatureF,Max Dew PointF,MeanDew PointF,Min DewpointF,Max Humidity, Mean Humidity, Min Humidity, Max Sea Level PressureIn, Mean Sea Level PressureIn, Min Sea Level PressureIn, Max VisibilityMiles, Mean VisibilityMiles, Min VisibilityMiles, Max Wind SpeedMPH, Mean Wind SpeedMPH, Max Gust SpeedMPH,PrecipitationIn, CloudCover, Events, WindDirDegrees
2011-12-1,45,29,13,22,16,10,92,62,31,30.81,30.64,30.40,10,10,10,10,3,12,0.00,0,,145
2011-12-2,44,27,9,24,14,7,83,58,33,30.46,30.37,30.24,10,10,10,18,5,24,0.00,0,,356
2011-12-3,49,27,4,16,10,6,92,56,19,30.54,30.44,30.38,10,10,10,9,4,12,0.00,0,,134
2011-12-4,43,25,7,24,15,6,88,67,45,30.59,30.49,30.37,10,10,10,15,6,18,0.00,0,,270
2011-12-5,46,27,7,19,11,5,100,62,23,30.58,30.48,30.34,10,10,10,10,3,12,0.00,0,,125
2011-12-6,55,35,14,14,11,8,73,46,19,30.46,30.40,30.33,10,10,10,10,3,14,0.00,0,,121
2011-12-7,57,38,18,28,20,11,85,58,30,30.39,30.33,30.23,10,10,10,13,5,16,0.00,0,,88
2011-12-8,48,29,9,27,15,7,100,69,38,30.48,30.39,30.26,10,9,1,10,3,13,0.00,2,,132
2011-12-9,47,28,9,21,14,8,88,63,37,30.48,30.38,30.27,10,10,10,9,3,10,0.00,0,,200
2011-12-10,54,34,13,16,13,10,88,54,20,30.23,30.11,30.00,10,10,10,12,3,18,0.00,0,,65
2011-12-11,38,26,13,25,21,10,92,76,59,30.06,30.01,29.94,10,10,10,15,7,20,0.00,4,,318
2011-12-12,28,25,21,24,19,16,96,82,68,30.18,30.12,29.99,10,10,10,17,8,22,T,8,,325
2011-12-13,38,28,17,18,16,12,84,64,44,30.17,30.09,29.97,10,10,10,9,3,12,0.00,3,,150
2011-12-14,44,28,11,30,17,9,92,63,33,30.25,30.14,30.02,10,10,10,10,2,14,T,2,,154
2011-12-15,47,32,17,29,26,19,96,73,49,30.52,30.31,30.10,10,10,10,9,2,13,0.00,5,,157
2011-12-16,51,35,18,28,23,17,100,70,39,30.56,30.50,30.46,10,10,10,8,3,12,0.00,1,,114
2011-12-17,58,39,19,27,24,19,88,59,30,30.47,30.30,30.12,10,10,10,15,6,21,0.00,0,,119
2011-12-18,49,33,16,32,23,16,92,69,45,30.40,30.22,30.11,10,10,10,15,3,18,T,2,,297
2011-12-19,45,28,11,30,20,10,100,75,49,30.49,30.41,30.30,10,10,10,9,3,10,0.00,1,,144
2011-12-20,53,33,12,35,21,10,92,63,34,30.40,30.32,30.21,10,10,10,21,5,25,0.00,0,,175
2011-12-21,39,24,8,18,12,5,92,68,44,30.57,30.46,30.32,10,10,10,8,4,10,0.00,0,,168
2011-12-22,45,23,1,15,7,1,100,61,22,30.62,30.52,30.38,10,10,10,15,5,18,0.00,0,,120
2011-12-23,53,36,18,10,5,2,51,32,13,30.63,30.57,30.46,10,10,10,10,4,12,0.00,1,,104
2011-12-24,54,36,17,15,12,8,62,41,20,30.61,30.52,30.37,10,10,10,14,4,17,0.00,1,,130
2011-12-25,52,37,22,31,19,11,88,55,21,30.35,30.27,30.19,10,10,10,24,8,32,0.00,2,,144
2011-12-26,42,29,15,25,22,14,92,71,49,30.37,30.29,30.18,10,10,10,10,3,14,T,3,,131
2011-12-27,52,39,25,41,32,22,78,64,50,30.29,30.16,30.00,10,10,10,25,12,37,0.04,6,Rain,170
2011-12-28,55,51,46,47,43,40,86,79,71,30.06,29.97,29.88,10,10,6,23,13,32,0.50,7,Rain,191
2011-12-29,51,43,35,43,37,30,89,72,54,30.10,29.95,29.72,10,10,10,29,10,38,0.09,5,Rain,181
2011-12-30,51,40,29,43,35,22,89,75,61,30.24,29.86,29.69,10,10,2,25,10,33,0.18,6,Rain-Snow,267
2011-12-31,42,30,17,24,20,15,92,67,41,30.43,30.33,30.22,10,10,10,15,6,20,0.00,4,,153